Cranendonck, Netherlands
Current Conditions -  °F | °C
As of 8:55 AM on Sunday 26 Oct 2014 (Local Time) from EBBL Reporting Station
Overcast Overcast  
Wind Chill: 52°   Ceiling: 3900
Heat Index: 52°   Visibility: 6mi
Dew Point: 48°   Wind: 3mph
Humidity: 88%   Direction: 200°SSW
Pressure: 30.27"   Gusts: NA
Location:  51.3°N, 5.59°E
Report Text: EBBL 260655Z AUTO 20003KT 9999 OVC039/// 11/09 Q1025 BLU
Loading
Personal Weather Stations






























Interactive Weather Map
Tropical Storm Tracking
New forecast layout! Learn more

10-Day Weather Forecast

Advertisements
Track Severe Weather on mobile